Briarwood Trace, Illinois
Current Conditions -  °F | °C
As of 3:52 AM on Saturday 25 Oct 2014 (Local Time) from KMDH Reporting Station
Clear Clear  
Wind Chill: 55°   Ceiling: Unl
Heat Index: 55°   Visibility: 10mi
Dew Point: 52°   Wind: 6mph
Humidity: 89%   Direction: 200°SSW
Pressure: 30"   Gusts: NA
Location:  37.7248°N, 89.197°W
Report Text: KMDH 250852Z AUTO 20005KT 10SM CLR 13/11 A3000 RMK AO2 SLP158 T01280111 58007
Loading
Personal Weather Stations






























Interactive Weather Map
Tropical Storm Tracking
New forecast layout! Learn more

10-Day Weather Forecast

Advertisements
Track Severe Weather on mobile